Thomas Zafiras — SVCL8 — position and weather

sailwx.info

Track history (hours):
 
Tides and Currents Weather Stations Pressure Air Temp Water Temp Dewpoint Dewpoint Depression Visibility Wind Speed Wind Dir Waves Ship Positions

Thomas Zafiras

Last reported at 2018-Jan-19 17:30 UTC. Time now 2018-Jan-19 17:34 UTC.
Position N 60°37' E 004°51'.

Length 250 m; draft 8.5 m.

Type: Tanker. MMSI: 241456000.

Date/timePositionNaut miles runAvg speedWind from/ knotsBaromVisibWave heightAir tempDewpointWater temp
2018-Jan-19 17:30N 60°37' E 004°51'0 0.0
2018-Jan-19 17:00N 60°37' E 004°51'0 0.0
2018-Jan-19 16:30N 60°37' E 004°51'0 0.0
2018-Jan-19 16:00N 60°37' E 004°51'0 0.0
2018-Jan-19 15:30N 60°37' E 004°51'0 0.0
2018-Jan-19 15:00N 60°37' E 004°51'0 0.0
2018-Jan-19 14:30N 60°37' E 004°51'0 0.0
2018-Jan-19 14:00N 60°37' E 004°51'0 0.0
2018-Jan-19 13:30N 60°37' E 004°51'0 0.0
2018-Jan-19 13:00N 60°37' E 004°51'0 0.0
2018-Jan-19 12:30N 60°37' E 004°51'0 0.0
2018-Jan-19 12:00N 60°37' E 004°51'0 0.0
2018-Jan-19 11:30N 60°37' E 004°51'0 0.0
2018-Jan-19 11:00N 60°37' E 004°51'0 0.0
2018-Jan-19 10:30N 60°37' E 004°51'0 0.0
2018-Jan-19 10:00N 60°37' E 004°51'0 0.0
2018-Jan-19 09:27N 60°37' E 004°51'0 0.0
2018-Jan-19 09:00N 60°37' E 004°51'0 0.0
2018-Jan-19 08:30N 60°37' E 004°51'0 0.0
2018-Jan-19 08:00N 60°37' E 004°51'0 0.0
2018-Jan-19 07:30N 60°37' E 004°51'0 0.0
2018-Jan-19 07:00N 60°37' E 004°51'0 0.0
2018-Jan-19 06:30N 60°37' E 004°51'0 0.0
2018-Jan-19 06:00N 60°37' E 004°51'0 0.0
2018-Jan-19 05:30N 60°37' E 004°51'0 0.0
2018-Jan-19 05:00N 60°37' E 004°51'0 0.0
2018-Jan-19 04:30N 60°37' E 004°51'0 0.0
2018-Jan-19 04:00N 60°37' E 004°51'0 0.0
2018-Jan-19 03:30N 60°37' E 004°51'0 0.0
2018-Jan-19 03:00N 60°37' E 004°51'0 0.0
2018-Jan-19 02:30N 60°37' E 004°51'0 0.0
2018-Jan-19 02:00N 60°37' E 004°51'0 0.0
2018-Jan-19 01:30N 60°37' E 004°51'0 0.0
2018-Jan-19 01:00N 60°37' E 004°51'0 0.0
2018-Jan-19 00:30N 60°37' E 004°51'0 0.0
2018-Jan-19 00:00N 60°37' E 004°51'0 0.1
2018-Jan-18 23:30N 60°37' E 004°52'2 3.3
2018-Jan-18 23:00N 60°39' E 004°51'5 9.1
2018-Jan-18 22:30N 60°43' E 004°46'5 9.5
2018-Jan-18 22:00N 60°45' E 004°37'5 9.1
2018-Jan-18 21:30N 60°47' E 004°29'2 4.1
2018-Jan-18 21:00N 60°46' E 004°25'4 8.8
2018-Jan-18 20:30N 60°41' E 004°23'14 9.9
2018-Jan-18 19:08N 60°28' E 004°16'214.3
2018-Jan-18 18:58N 60°26' E 004°14'714.6
2018-Jan-18 18:30N 60°19' E 004°11'9213.0
2018-Jan-18 11:24N 58°48' E 004°33'513.9
2018-Jan-18 11:01N 58°44' E 004°41'713.8
2018-Jan-18 10:29N 58°39' E 004°50'613.8
2018-Jan-18 10:00N 58°35' E 004°59'714.5
2018-Jan-18 09:30N 58°29' E 005°09'715.0
2018-Jan-18 09:00N 58°24' E 005°19'714.4
2018-Jan-18 08:30N 58°19' E 005°29'916.2
2018-Jan-18 07:59N 58°13' E 005°41'612.9
2018-Jan-18 07:30N 58°09' E 005°50'714.3
2018-Jan-18 07:00N 58°05' E 006°00'714.0
2018-Jan-18 06:30N 58°01' E 006°11'714.0
2018-Jan-18 06:00N 57°56' E 006°20'714.1
2018-Jan-18 05:30N 57°51' E 006°30'713.3
2018-Jan-18 05:00N 57°48' E 006°41'713.9
2018-Jan-18 04:29N 57°47' E 006°54'713.4
2018-Jan-18 04:00N 57°47' E 007°07'814.5
2018-Jan-18 03:29N 57°47' E 007°21'511.4
2018-Jan-18 03:00N 57°46' E 007°31'613.0
2018-Jan-18 02:30N 57°46' E 007°43'713.5
2018-Jan-18 02:00N 57°46' E 007°56'713.4
2018-Jan-18 01:30N 57°46' E 008°08'  
2018-Jan-12 15:00N 60°37' E 004°51'0 0.0
2018-Jan-12 14:30N 60°37' E 004°51'0 0.0
2018-Jan-12 14:00N 60°37' E 004°51'0 0.0
2018-Jan-12 13:30N 60°37' E 004°51'0 0.0
2018-Jan-12 13:00N 60°37' E 004°51'0 0.0
2018-Jan-12 12:30N 60°37' E 004°51'0 0.0
2018-Jan-12 12:00N 60°37' E 004°51'0 0.0
2018-Jan-12 11:30N 60°37' E 004°51'0 0.0
2018-Jan-12 11:00N 60°37' E 004°51'0 0.0
2018-Jan-12 10:30N 60°37' E 004°51'0 0.0
2018-Jan-12 10:01N 60°37' E 004°51'1 1.3
2018-Jan-12 09:30N 60°38' E 004°52'4 8.8
2018-Jan-12 09:00N 60°42' E 004°47'5 9.7
2018-Jan-12 08:31N 60°45' E 004°39'510.4
2018-Jan-12 08:01N 60°46' E 004°29'1 2.7
2018-Jan-12 07:30N 60°47' E 004°27'1 1.9
2018-Jan-12 07:00N 60°46' E 004°27'3 5.7
2018-Jan-12 06:30N 60°44' E 004°23'713.7
2018-Jan-12 06:00N 60°40' E 004°12'714.5
2018-Jan-12 05:30N 60°34' E 004°03'611.9
2018-Jan-12 05:00N 60°29' E 003°56'2 4.3
2018-Jan-12 04:30N 60°27' E 003°54'612.0
2018-Jan-12 04:01N 60°22' E 003°48'714.2
2018-Jan-12 03:30N 60°17' E 003°38'713.5
2018-Jan-12 03:01N 60°15' E 003°25'714.4
2018-Jan-12 02:30N 60°14' E 003°11'714.4
2018-Jan-12 02:01N 60°14' E 002°56'714.4
2018-Jan-12 01:31N 60°13' E 002°42'714.1
2018-Jan-12 01:01N 60°13' E 002°28'714.1
2018-Jan-12 00:31N 60°12' E 002°13'714.2
2018-Jan-12 00:00N 60°12' E 001°59'714.2
2018-Jan-11 23:31N 60°12' E 001°45'714.3
2018-Jan-11 23:01N 60°11' E 001°31'714.3
2018-Jan-11 22:30N 60°10' E 001°16'714.4
2018-Jan-11 22:01N 60°08' E 001°02'36511.0
2018-Jan-10 12:48N 55°59' W 007°22'512.6
2018-Jan-10 12:23N 55°54' W 007°17'512.6
2018-Jan-10 12:00N 55°50' W 007°14'713.3
2018-Jan-10 11:30N 55°44' W 007°09'713.7
2018-Jan-10 11:00N 55°37' W 007°04'612.9
2018-Jan-10 10:30N 55°33' W 006°57'713.5
2018-Jan-10 10:01N 55°30' W 006°46'714.2
2018-Jan-10 09:31N 55°28' W 006°34'714.4
2018-Jan-10 09:01N 55°27' W 006°22'714.7
2018-Jan-10 08:31N 55°25' W 006°09'714.0
2018-Jan-10 08:01N 55°21' W 005°59'816.2
2018-Jan-10 07:30N 55°14' W 005°51'815.4
2018-Jan-10 07:00N 55°08' W 005°43'715.0
2018-Jan-10 06:30N 55°02' W 005°35'714.4
2018-Jan-10 06:01N 54°56' W 005°29'714.1
2018-Jan-10 05:31N 54°50' W 005°23'713.5
2018-Jan-10 05:00N 54°44' W 005°18'713.3
2018-Jan-10 04:30N 54°38' W 005°13'713.2
2018-Jan-10 04:00N 54°31' W 005°10'713.5
2018-Jan-10 03:31N 54°25' W 005°08'713.8
2018-Jan-10 03:01N 54°18' W 005°08'713.8
2018-Jan-10 02:31N 54°11' W 005°09'714.0
2018-Jan-10 02:01N 54°04' W 005°10'7013.5
2018-Jan-09 20:48N 52°55' W 005°29'411.9
2018-Jan-09 20:30N 52°51' W 005°32'1412.2
2018-Jan-09 19:21N 52°39' W 005°41'412.6
2018-Jan-09 19:00N 52°34' W 005°44'612.9
2018-Jan-09 18:30N 52°28' W 005°47'713.2
2018-Jan-09 18:00N 52°22' W 005°51'713.6
2018-Jan-09 17:30N 52°16' W 005°55'  
Track history (hours):
 
Tides and Currents Weather Stations Pressure Air Temp Water Temp Dewpoint Dewpoint Depression Visibility Wind Speed Wind Dir Waves Ship Positions

Thomas Zafiras

Last reported at 2018-Jan-19 17:30 UTC. Time now 2018-Jan-19 17:34 UTC.
Position N 60°37' E 004°51'.

Length 250 m; draft 8.5 m.

Type: Tanker. MMSI: 241456000.

Date/timePositionNaut miles runAvg speedWind from/ knotsBaromVisibWave heightAir tempDewpointWater temp
2018-Jan-19 17:30N 60°37' E 004°51'0 0.0
2018-Jan-19 17:00N 60°37' E 004°51'0 0.0
2018-Jan-19 16:30N 60°37' E 004°51'0 0.0
2018-Jan-19 16:00N 60°37' E 004°51'0 0.0
2018-Jan-19 15:30N 60°37' E 004°51'0 0.0
2018-Jan-19 15:00N 60°37' E 004°51'0 0.0
2018-Jan-19 14:30N 60°37' E 004°51'0 0.0
2018-Jan-19 14:00N 60°37' E 004°51'0 0.0
2018-Jan-19 13:30N 60°37' E 004°51'0 0.0
2018-Jan-19 13:00N 60°37' E 004°51'0 0.0
2018-Jan-19 12:30N 60°37' E 004°51'0 0.0
2018-Jan-19 12:00N 60°37' E 004°51'0 0.0
2018-Jan-19 11:30N 60°37' E 004°51'0 0.0
2018-Jan-19 11:00N 60°37' E 004°51'0 0.0
2018-Jan-19 10:30N 60°37' E 004°51'0 0.0
2018-Jan-19 10:00N 60°37' E 004°51'0 0.0
2018-Jan-19 09:27N 60°37' E 004°51'0 0.0
2018-Jan-19 09:00N 60°37' E 004°51'0 0.0
2018-Jan-19 08:30N 60°37' E 004°51'0 0.0
2018-Jan-19 08:00N 60°37' E 004°51'0 0.0
2018-Jan-19 07:30N 60°37' E 004°51'0 0.0
2018-Jan-19 07:00N 60°37' E 004°51'0 0.0
2018-Jan-19 06:30N 60°37' E 004°51'0 0.0
2018-Jan-19 06:00N 60°37' E 004°51'0 0.0
2018-Jan-19 05:30N 60°37' E 004°51'0 0.0
2018-Jan-19 05:00N 60°37' E 004°51'0 0.0
2018-Jan-19 04:30N 60°37' E 004°51'0 0.0
2018-Jan-19 04:00N 60°37' E 004°51'0 0.0
2018-Jan-19 03:30N 60°37' E 004°51'0 0.0
2018-Jan-19 03:00N 60°37' E 004°51'0 0.0
2018-Jan-19 02:30N 60°37' E 004°51'0 0.0
2018-Jan-19 02:00N 60°37' E 004°51'0 0.0
2018-Jan-19 01:30N 60°37' E 004°51'0 0.0
2018-Jan-19 01:00N 60°37' E 004°51'0 0.0
2018-Jan-19 00:30N 60°37' E 004°51'0 0.0
2018-Jan-19 00:00N 60°37' E 004°51'0 0.1
2018-Jan-18 23:30N 60°37' E 004°52'2 3.3
2018-Jan-18 23:00N 60°39' E 004°51'5 9.1
2018-Jan-18 22:30N 60°43' E 004°46'5 9.5
2018-Jan-18 22:00N 60°45' E 004°37'5 9.1
2018-Jan-18 21:30N 60°47' E 004°29'2 4.1
2018-Jan-18 21:00N 60°46' E 004°25'4 8.8
2018-Jan-18 20:30N 60°41' E 004°23'14 9.9
2018-Jan-18 19:08N 60°28' E 004°16'214.3
2018-Jan-18 18:58N 60°26' E 004°14'714.6
2018-Jan-18 18:30N 60°19' E 004°11'9213.0
2018-Jan-18 11:24N 58°48' E 004°33'513.9
2018-Jan-18 11:01N 58°44' E 004°41'713.8
2018-Jan-18 10:29N 58°39' E 004°50'613.8
2018-Jan-18 10:00N 58°35' E 004°59'714.5
2018-Jan-18 09:30N 58°29' E 005°09'715.0
2018-Jan-18 09:00N 58°24' E 005°19'714.4
2018-Jan-18 08:30N 58°19' E 005°29'916.2
2018-Jan-18 07:59N 58°13' E 005°41'612.9
2018-Jan-18 07:30N 58°09' E 005°50'714.3
2018-Jan-18 07:00N 58°05' E 006°00'714.0
2018-Jan-18 06:30N 58°01' E 006°11'714.0
2018-Jan-18 06:00N 57°56' E 006°20'714.1
2018-Jan-18 05:30N 57°51' E 006°30'713.3
2018-Jan-18 05:00N 57°48' E 006°41'713.9
2018-Jan-18 04:29N 57°47' E 006°54'713.4
2018-Jan-18 04:00N 57°47' E 007°07'814.5
2018-Jan-18 03:29N 57°47' E 007°21'511.4
2018-Jan-18 03:00N 57°46' E 007°31'613.0
2018-Jan-18 02:30N 57°46' E 007°43'713.5
2018-Jan-18 02:00N 57°46' E 007°56'713.4
2018-Jan-18 01:30N 57°46' E 008°08'  
2018-Jan-12 15:00N 60°37' E 004°51'0 0.0
2018-Jan-12 14:30N 60°37' E 004°51'0 0.0
2018-Jan-12 14:00N 60°37' E 004°51'0 0.0
2018-Jan-12 13:30N 60°37' E 004°51'0 0.0
2018-Jan-12 13:00N 60°37' E 004°51'0 0.0
2018-Jan-12 12:30N 60°37' E 004°51'0 0.0
2018-Jan-12 12:00N 60°37' E 004°51'0 0.0
2018-Jan-12 11:30N 60°37' E 004°51'0 0.0
2018-Jan-12 11:00N 60°37' E 004°51'0 0.0
2018-Jan-12 10:30N 60°37' E 004°51'0 0.0
2018-Jan-12 10:01N 60°37' E 004°51'1 1.3
2018-Jan-12 09:30N 60°38' E 004°52'4 8.8
2018-Jan-12 09:00N 60°42' E 004°47'5 9.7
2018-Jan-12 08:31N 60°45' E 004°39'510.4
2018-Jan-12 08:01N 60°46' E 004°29'1 2.7
2018-Jan-12 07:30N 60°47' E 004°27'1 1.9
2018-Jan-12 07:00N 60°46' E 004°27'3 5.7
2018-Jan-12 06:30N 60°44' E 004°23'713.7
2018-Jan-12 06:00N 60°40' E 004°12'714.5
2018-Jan-12 05:30N 60°34' E 004°03'611.9
2018-Jan-12 05:00N 60°29' E 003°56'2 4.3
2018-Jan-12 04:30N 60°27' E 003°54'612.0
2018-Jan-12 04:01N 60°22' E 003°48'714.2
2018-Jan-12 03:30N 60°17' E 003°38'713.5
2018-Jan-12 03:01N 60°15' E 003°25'714.4
2018-Jan-12 02:30N 60°14' E 003°11'714.4
2018-Jan-12 02:01N 60°14' E 002°56'714.4
2018-Jan-12 01:31N 60°13' E 002°42'714.1
2018-Jan-12 01:01N 60°13' E 002°28'714.1
2018-Jan-12 00:31N 60°12' E 002°13'714.2
2018-Jan-12 00:00N 60°12' E 001°59'714.2
2018-Jan-11 23:31N 60°12' E 001°45'714.3
2018-Jan-11 23:01N 60°11' E 001°31'714.3
2018-Jan-11 22:30N 60°10' E 001°16'714.4
2018-Jan-11 22:01N 60°08' E 001°02'36511.0
2018-Jan-10 12:48N 55°59' W 007°22'512.6
2018-Jan-10 12:23N 55°54' W 007°17'512.6
2018-Jan-10 12:00N 55°50' W 007°14'713.3
2018-Jan-10 11:30N 55°44' W 007°09'713.7
2018-Jan-10 11:00N 55°37' W 007°04'612.9
2018-Jan-10 10:30N 55°33' W 006°57'713.5
2018-Jan-10 10:01N 55°30' W 006°46'714.2
2018-Jan-10 09:31N 55°28' W 006°34'714.4
2018-Jan-10 09:01N 55°27' W 006°22'714.7
2018-Jan-10 08:31N 55°25' W 006°09'714.0
2018-Jan-10 08:01N 55°21' W 005°59'816.2
2018-Jan-10 07:30N 55°14' W 005°51'815.4
2018-Jan-10 07:00N 55°08' W 005°43'715.0
2018-Jan-10 06:30N 55°02' W 005°35'714.4
2018-Jan-10 06:01N 54°56' W 005°29'714.1
2018-Jan-10 05:31N 54°50' W 005°23'713.5
2018-Jan-10 05:00N 54°44' W 005°18'713.3
2018-Jan-10 04:30N 54°38' W 005°13'713.2
2018-Jan-10 04:00N 54°31' W 005°10'713.5
2018-Jan-10 03:31N 54°25' W 005°08'713.8
2018-Jan-10 03:01N 54°18' W 005°08'713.8
2018-Jan-10 02:31N 54°11' W 005°09'714.0
2018-Jan-10 02:01N 54°04' W 005°10'7013.5
2018-Jan-09 20:48N 52°55' W 005°29'411.9
2018-Jan-09 20:30N 52°51' W 005°32'1412.2
2018-Jan-09 19:21N 52°39' W 005°41'412.6
2018-Jan-09 19:00N 52°34' W 005°44'612.9
2018-Jan-09 18:30N 52°28' W 005°47'713.2
2018-Jan-09 18:00N 52°22' W 005°51'713.6
2018-Jan-09 17:30N 52°16' W 005°55'  

Dump ship's entire track history